createdAt,value
2019-05-26T00:00:53.181Z,0
2019-05-26T00:01:53.173Z,0
2019-05-26T00:02:53.181Z,0
2019-05-26T00:03:53.703Z,0
2019-05-26T00:04:53.187Z,0
2019-05-26T00:05:53.174Z,0
2019-05-26T00:06:53.158Z,0
2019-05-26T00:07:53.490Z,0
2019-05-26T00:08:53.137Z,0
2019-05-26T00:09:53.643Z,0
2019-05-26T00:10:53.206Z,0
2019-05-26T00:11:53.361Z,0
2019-05-26T00:12:53.179Z,0
2019-05-26T00:13:53.167Z,0
2019-05-26T00:14:53.192Z,0
2019-05-26T00:15:53.627Z,0
2019-05-26T00:16:53.972Z,0
2019-05-26T00:17:53.255Z,0
2019-05-26T00:18:53.178Z,0
2019-05-26T00:19:53.939Z,0
2019-05-26T00:20:53.198Z,0
2019-05-26T00:21:53.196Z,0
2019-05-26T00:22:53.225Z,0
2019-05-26T00:23:56.127Z,0
2019-05-26T00:24:53.241Z,0
2019-05-26T00:26:01.743Z,0
2019-05-26T00:26:53.292Z,0
2019-05-26T00:27:54.078Z,0
2019-05-26T00:28:53.717Z,0
2019-05-26T00:29:54.665Z,0
2019-05-26T00:30:53.341Z,0
2019-05-26T00:31:53.426Z,0
2019-05-26T00:32:53.295Z,0
2019-05-26T00:33:54.030Z,0
2019-05-26T00:34:53.224Z,0
2019-05-26T00:35:53.203Z,0
2019-05-26T00:36:53.233Z,0
2019-05-26T00:37:57.976Z,0
2019-05-26T00:38:53.226Z,0
2019-05-26T00:39:53.574Z,0
2019-05-26T00:40:53.224Z,0
2019-05-26T00:41:53.274Z,0
2019-05-26T00:42:53.332Z,0
2019-05-26T00:43:53.257Z,0
2019-05-26T00:44:53.241Z,0
2019-05-26T00:45:53.537Z,0
2019-05-26T00:46:53.378Z,0
2019-05-26T00:47:53.207Z,0
2019-05-26T00:48:53.255Z,0
2019-05-26T00:49:53.269Z,0
2019-05-26T00:50:53.243Z,0
2019-05-26T00:51:53.238Z,0
2019-05-26T00:52:56.423Z,0
2019-05-26T00:53:53.342Z,0
2019-05-26T00:54:53.239Z,0
2019-05-26T00:56:03.766Z,0
2019-05-26T00:56:53.245Z,0
2019-05-26T00:57:53.231Z,0
2019-05-26T00:58:53.293Z,0
2019-05-26T00:59:53.244Z,0
2019-05-26T01:00:53.275Z,0
2019-05-26T01:01:53.252Z,0
2019-05-26T01:02:53.347Z,0
2019-05-26T01:03:53.287Z,0
2019-05-26T01:04:53.289Z,0
2019-05-26T01:05:53.286Z,0
2019-05-26T01:06:53.303Z,0
2019-05-26T01:08:10.395Z,0
2019-05-26T01:08:53.264Z,0
2019-05-26T01:09:53.262Z,0
2019-05-26T01:10:53.289Z,0
2019-05-26T01:11:53.315Z,0
2019-05-26T01:12:53.347Z,0
2019-05-26T01:13:53.479Z,0
2019-05-26T01:14:53.278Z,0
2019-05-26T01:15:59.830Z,0
2019-05-26T01:16:55.706Z,0
2019-05-26T01:17:53.828Z,0
2019-05-26T01:18:53.428Z,0
2019-05-26T01:19:53.389Z,0
2019-05-26T01:20:53.336Z,0
2019-05-26T01:21:53.648Z,0
2019-05-26T01:22:56.466Z,0
2019-05-26T01:23:53.306Z,0
2019-05-26T01:24:53.382Z,0
2019-05-26T01:26:04.327Z,0
2019-05-26T01:26:53.274Z,0
2019-05-26T01:27:53.340Z,0
2019-05-26T01:28:53.304Z,0
2019-05-26T01:29:53.317Z,0
2019-05-26T01:30:53.639Z,0
2019-05-26T01:31:53.330Z,0
2019-05-26T01:32:53.351Z,0
2019-05-26T01:33:53.304Z,0
2019-05-26T01:34:53.310Z,0
2019-05-26T01:35:53.314Z,0
2019-05-26T01:36:53.342Z,0
2019-05-26T01:37:53.283Z,0
2019-05-26T01:38:53.354Z,0
2019-05-26T01:39:53.691Z,0
2019-05-26T01:40:53.325Z,0
2019-05-26T01:41:53.411Z,0
2019-05-26T01:42:53.322Z,0
2019-05-26T01:43:53.347Z,0
2019-05-26T01:44:53.354Z,0
2019-05-26T01:45:53.331Z,0
2019-05-26T01:46:53.298Z,0
2019-05-26T01:47:53.327Z,0
2019-05-26T01:48:53.342Z,0
2019-05-26T01:49:53.335Z,0
2019-05-26T01:50:53.346Z,0
2019-05-26T01:51:53.660Z,0
2019-05-26T01:52:53.367Z,0
2019-05-26T01:53:53.346Z,0
2019-05-26T01:54:53.336Z,0
2019-05-26T01:55:53.424Z,0
2019-05-26T01:56:53.455Z,0
2019-05-26T01:57:53.357Z,0
2019-05-26T01:58:53.364Z,0
2019-05-26T01:59:53.451Z,0
2019-05-26T02:00:53.379Z,0
2019-05-26T02:01:53.469Z,0
2019-05-26T02:02:53.372Z,0
2019-05-26T02:03:53.719Z,0
2019-05-26T02:04:53.609Z,0
2019-05-26T02:05:53.411Z,0
2019-05-26T02:06:53.378Z,0
2019-05-26T02:07:53.448Z,0
2019-05-26T02:08:53.386Z,0
2019-05-26T02:09:53.806Z,0
2019-05-26T02:10:53.406Z,0
2019-05-26T02:11:53.469Z,0
2019-05-26T02:12:53.466Z,0
2019-05-26T02:13:53.385Z,0
2019-05-26T02:14:53.468Z,0
2019-05-26T02:15:53.868Z,0
2019-05-26T02:16:53.564Z,0
2019-05-26T02:17:53.386Z,0
2019-05-26T02:18:53.492Z,0
2019-05-26T02:19:53.434Z,0
2019-05-26T02:20:53.408Z,0
2019-05-26T02:21:53.698Z,0
2019-05-26T02:22:53.399Z,0
2019-05-26T02:23:53.407Z,0
2019-05-26T02:24:53.369Z,0
2019-05-26T02:26:53.811Z,0
2019-05-26T02:32:10.393Z,0
2019-05-26T02:33:21.440Z,0
2019-05-26T02:34:21.407Z,0
2019-05-26T02:35:21.397Z,0
2019-05-26T02:36:21.364Z,0
2019-05-26T02:37:21.424Z,0
2019-05-26T02:38:25.638Z,0
2019-05-26T02:39:21.377Z,0
2019-05-26T02:40:21.595Z,0
2019-05-26T02:41:21.397Z,0
2019-05-26T02:42:21.753Z,0
2019-05-26T02:43:21.472Z,0
2019-05-26T02:44:21.470Z,0
2019-05-26T02:45:21.381Z,0
2019-05-26T02:46:21.422Z,0
2019-05-26T02:47:21.468Z,0
2019-05-26T02:48:21.803Z,0
2019-05-26T02:49:21.384Z,0
2019-05-26T02:50:21.682Z,0
2019-05-26T02:51:21.396Z,0
2019-05-26T02:52:21.401Z,0
2019-05-26T02:53:24.470Z,0
2019-05-26T02:54:21.866Z,0
2019-05-26T02:55:21.442Z,0
2019-05-26T02:56:22.052Z,0
2019-05-26T02:57:21.406Z,0
2019-05-26T02:58:21.441Z,4
2019-05-26T02:59:21.449Z,0
2019-05-26T03:00:21.455Z,0
2019-05-26T03:01:21.442Z,0
2019-05-26T03:02:21.408Z,0
2019-05-26T03:03:21.434Z,4
2019-05-26T03:04:21.605Z,0
2019-05-26T03:05:21.392Z,0
2019-05-26T03:06:21.735Z,4
2019-05-26T03:07:21.504Z,0
2019-05-26T03:08:21.486Z,4
2019-05-26T03:09:31.154Z,4
2019-05-26T03:10:21.561Z,0
2019-05-26T03:11:21.547Z,4
2019-05-26T03:12:21.434Z,4
2019-05-26T03:13:21.438Z,4
2019-05-26T03:14:21.447Z,4
2019-05-26T03:15:21.501Z,8
2019-05-26T03:16:21.544Z,4
2019-05-26T03:17:23.143Z,8
2019-05-26T03:18:21.416Z,8
2019-05-26T03:19:21.457Z,8
2019-05-26T03:20:21.607Z,8
2019-05-26T03:21:21.431Z,8
2019-05-26T03:22:21.480Z,12
2019-05-26T03:23:21.484Z,12
2019-05-26T03:24:21.842Z,12
2019-05-26T03:25:21.503Z,12
2019-05-26T03:26:21.586Z,12
2019-05-26T03:27:21.458Z,12
2019-05-26T03:28:21.588Z,16
2019-05-26T03:29:21.473Z,16
2019-05-26T03:30:21.771Z,16
2019-05-26T03:31:21.463Z,16
2019-05-26T03:32:21.554Z,20
2019-05-26T03:33:21.849Z,20
2019-05-26T03:34:21.506Z,24
2019-05-26T03:35:21.514Z,24
2019-05-26T03:36:21.783Z,28
2019-05-26T03:37:21.510Z,24
2019-05-26T03:38:21.490Z,28
2019-05-26T03:39:39.556Z,32
2019-05-26T03:40:21.503Z,32
2019-05-26T03:41:37.257Z,32
2019-05-26T03:42:37.562Z,36
2019-05-26T03:43:37.281Z,36
2019-05-26T03:44:37.313Z,40
2019-05-26T03:45:37.252Z,44
2019-05-26T03:46:37.437Z,44
2019-05-26T03:47:37.675Z,44
2019-05-26T03:48:37.223Z,44
2019-05-26T03:49:37.251Z,48
2019-05-26T03:50:37.306Z,52
2019-05-26T03:51:37.449Z,52
2019-05-26T03:52:37.277Z,56
2019-05-26T03:53:37.236Z,56
2019-05-26T03:54:37.606Z,56
2019-05-26T03:55:37.268Z,60
2019-05-26T03:56:37.327Z,64
2019-05-26T03:57:37.375Z,64
2019-05-26T03:58:37.334Z,68
2019-05-26T03:59:37.310Z,72
2019-05-26T04:00:37.605Z,68
2019-05-26T04:01:37.285Z,72
2019-05-26T04:02:37.301Z,72
2019-05-26T04:03:37.291Z,80
2019-05-26T04:04:37.424Z,80
2019-05-26T04:05:37.323Z,80
2019-05-26T04:06:38.623Z,80
2019-05-26T04:07:37.272Z,84
2019-05-26T04:08:37.363Z,88
2019-05-26T04:09:37.311Z,88
2019-05-26T04:10:37.332Z,92
2019-05-26T04:11:37.423Z,92
2019-05-26T04:12:37.414Z,96
2019-05-26T04:13:37.353Z,96
2019-05-26T04:14:37.260Z,100
2019-05-26T04:15:37.357Z,104
2019-05-26T04:16:37.297Z,104
2019-05-26T04:17:37.389Z,104
2019-05-26T04:22:55.495Z,108
2019-05-26T04:23:06.519Z,120
2019-05-26T04:24:06.591Z,120
2019-05-26T04:26:29.862Z,128
2019-05-26T04:27:28.333Z,132
2019-05-26T04:28:20.709Z,136
2019-05-26T04:29:20.162Z,140
2019-05-26T04:30:20.189Z,144
2019-05-26T04:31:20.154Z,144
2019-05-26T04:32:20.323Z,148
2019-05-26T04:33:20.167Z,152
2019-05-26T04:34:20.153Z,156
2019-05-26T04:35:20.182Z,160
2019-05-26T04:36:20.160Z,168
2019-05-26T04:37:20.414Z,168
2019-05-26T04:38:20.159Z,176
2019-05-26T04:39:20.165Z,180
2019-05-26T04:40:33.772Z,184
2019-05-26T04:41:20.234Z,188
2019-05-26T04:42:20.323Z,192
2019-05-26T04:43:23.018Z,196
2019-05-26T04:44:20.521Z,204
2019-05-26T04:45:20.162Z,208
2019-05-26T04:46:20.211Z,208
2019-05-26T04:47:20.179Z,212
2019-05-26T04:48:20.364Z,216
2019-05-26T04:49:20.175Z,224
2019-05-26T04:50:20.910Z,224
2019-05-26T04:51:20.179Z,232
2019-05-26T04:52:20.195Z,236
2019-05-26T04:53:20.215Z,240
2019-05-26T04:54:20.142Z,244
2019-05-26T04:55:20.169Z,252
2019-05-26T04:56:28.502Z,256
2019-05-26T04:57:20.170Z,260
2019-05-26T04:58:20.281Z,264
2019-05-26T04:59:20.209Z,268
2019-05-26T05:00:20.190Z,276
2019-05-26T05:01:20.221Z,280
2019-05-26T05:02:20.670Z,284
2019-05-26T05:03:20.230Z,292
2019-05-26T05:04:20.202Z,296
2019-05-26T05:05:20.227Z,304
2019-05-26T05:06:20.240Z,304
2019-05-26T05:07:20.206Z,304
2019-05-26T05:08:20.189Z,312
2019-05-26T05:09:20.236Z,316
2019-05-26T05:10:20.243Z,320
2019-05-26T05:11:20.244Z,332
2019-05-26T05:12:20.253Z,332
2019-05-26T05:13:20.233Z,340
2019-05-26T05:14:20.242Z,348
2019-05-26T05:15:20.207Z,352
2019-05-26T05:16:20.297Z,356
2019-05-26T05:17:20.364Z,364
2019-05-26T05:18:20.323Z,368
2019-05-26T05:19:20.343Z,376
2019-05-26T05:20:20.240Z,384
2019-05-26T05:21:20.235Z,388
2019-05-26T05:22:20.253Z,392
2019-05-26T05:23:20.448Z,396
2019-05-26T05:24:20.186Z,400
2019-05-26T05:25:22.955Z,404
2019-05-26T05:26:29.234Z,408
2019-05-26T05:27:20.244Z,416
2019-05-26T05:28:20.274Z,416
2019-05-26T05:29:20.279Z,420
2019-05-26T05:30:20.269Z,428
2019-05-26T05:31:20.274Z,432
2019-05-26T05:32:20.580Z,440
2019-05-26T05:33:20.286Z,444
2019-05-26T05:34:20.290Z,448
2019-05-26T05:35:20.242Z,448
2019-05-26T05:36:20.282Z,452
2019-05-26T05:37:20.333Z,460
2019-05-26T05:38:20.283Z,468
2019-05-26T05:39:20.312Z,472
2019-05-26T05:40:20.248Z,476
2019-05-26T05:41:20.263Z,484
2019-05-26T05:42:20.264Z,492
2019-05-26T05:43:20.273Z,492
2019-05-26T05:44:20.279Z,504
2019-05-26T05:45:20.301Z,508
2019-05-26T05:46:20.250Z,512
2019-05-26T05:47:20.335Z,520
2019-05-26T05:48:20.387Z,528
2019-05-26T05:49:20.348Z,516
2019-05-26T05:50:20.642Z,528
2019-05-26T05:51:20.344Z,536
2019-05-26T05:52:20.288Z,552
2019-05-26T05:53:20.298Z,564
2019-05-26T05:54:20.388Z,568
2019-05-26T05:55:20.410Z,576
2019-05-26T05:56:31.165Z,584
2019-05-26T05:57:20.315Z,596
2019-05-26T05:58:20.301Z,604
2019-05-26T05:59:20.533Z,592
2019-05-26T06:00:20.884Z,620
2019-05-26T06:01:21.185Z,632
2019-05-26T06:02:20.305Z,644
2019-05-26T06:03:23.939Z,640
2019-05-26T06:04:20.342Z,656
2019-05-26T06:05:24.754Z,664
2019-05-26T06:06:20.409Z,672
2019-05-26T06:07:20.360Z,656
2019-05-26T06:08:20.936Z,688
2019-05-26T06:09:20.329Z,676
2019-05-26T06:10:20.621Z,664
2019-05-26T06:11:24.385Z,648
2019-05-26T06:12:20.338Z,728
2019-05-26T06:13:21.601Z,740
2019-05-26T06:14:20.874Z,756
2019-05-26T06:15:22.991Z,740
2019-05-26T06:16:24.171Z,732
2019-05-26T06:17:21.468Z,780
2019-05-26T06:18:21.113Z,800
2019-05-26T06:19:21.774Z,828
2019-05-26T06:20:20.359Z,860
2019-05-26T06:21:20.344Z,924
2019-05-26T06:22:20.413Z,996
2019-05-26T06:23:20.344Z,1056
2019-05-26T06:24:20.556Z,1128
2019-05-26T06:25:21.111Z,1140
2019-05-26T06:26:33.289Z,1132
2019-05-26T06:27:20.398Z,1184
2019-05-26T06:28:20.421Z,1168
2019-05-26T06:29:20.666Z,1576
2019-05-26T06:30:20.385Z,1688
2019-05-26T06:31:20.450Z,1752
2019-05-26T06:32:21.427Z,1828
2019-05-26T06:33:20.366Z,2100
2019-05-26T06:34:20.462Z,2296
2019-05-26T06:35:20.478Z,2288
2019-05-26T06:36:20.370Z,2476
2019-05-26T06:37:20.375Z,2728
2019-05-26T06:38:20.367Z,2768
2019-05-26T06:39:20.389Z,2656
2019-05-26T06:40:20.354Z,2444
2019-05-26T06:41:37.384Z,2464
2019-05-26T06:42:21.187Z,2392
2019-05-26T06:43:20.417Z,2860
2019-05-26T06:44:20.867Z,2816
2019-05-26T06:45:20.378Z,2460
2019-05-26T06:46:20.603Z,2648
2019-05-26T06:47:20.404Z,2352
2019-05-26T06:48:20.411Z,2412
2019-05-26T06:49:20.317Z,2380
2019-05-26T06:50:20.748Z,2536
2019-05-26T06:51:20.348Z,2444
2019-05-26T06:52:20.475Z,2228
2019-05-26T06:53:20.549Z,1468
2019-05-26T06:54:20.393Z,2168
2019-05-26T06:55:20.394Z,2096
2019-05-26T06:56:20.813Z,1992
2019-05-26T06:57:20.822Z,2196
2019-05-26T06:58:20.384Z,2484
2019-05-26T06:59:20.389Z,1508
2019-05-26T07:00:20.418Z,804
2019-05-26T07:01:20.379Z,2256
2019-05-26T07:02:20.413Z,2360
2019-05-26T07:03:20.419Z,2328
2019-05-26T07:04:20.425Z,2344
2019-05-26T07:05:23.709Z,2336
2019-05-26T07:06:20.371Z,2332
2019-05-26T07:07:20.421Z,2396
2019-05-26T07:08:20.791Z,2444
2019-05-26T07:09:20.434Z,2388
2019-05-26T07:10:20.445Z,2408
2019-05-26T07:11:20.450Z,2180
2019-05-26T07:12:20.408Z,1924
2019-05-26T07:13:20.424Z,2344
2019-05-26T07:14:20.707Z,2412
2019-05-26T07:15:20.493Z,2368
2019-05-26T07:16:34.837Z,2072
2019-05-26T07:17:23.190Z,912
2019-05-26T07:18:20.433Z,984
2019-05-26T07:19:20.625Z,2420
2019-05-26T07:20:20.423Z,2252
2019-05-26T07:21:20.475Z,2372
2019-05-26T07:22:20.521Z,2396
2019-05-26T07:23:20.670Z,2372
2019-05-26T07:24:20.474Z,2348
2019-05-26T07:25:20.521Z,2340
2019-05-26T07:26:20.485Z,2328
2019-05-26T07:27:20.497Z,2240
2019-05-26T07:28:20.492Z,2312
2019-05-26T07:29:20.558Z,2324
2019-05-26T07:30:23.385Z,2356
2019-05-26T07:31:20.437Z,2376
2019-05-26T07:32:21.003Z,2280
2019-05-26T07:33:20.512Z,2264
2019-05-26T07:34:20.611Z,2140
2019-05-26T07:35:20.426Z,2152
2019-05-26T07:36:20.412Z,2048
2019-05-26T07:37:20.987Z,1928
2019-05-26T07:38:22.989Z,1916
2019-05-26T07:39:20.608Z,1984
2019-05-26T07:40:20.460Z,2020
2019-05-26T07:41:20.502Z,2020
2019-05-26T07:42:20.497Z,2092
2019-05-26T07:43:20.644Z,2072
2019-05-26T07:44:20.450Z,2088
2019-05-26T07:45:20.471Z,2048
2019-05-26T07:46:20.453Z,1960
2019-05-26T07:47:20.729Z,2072
2019-05-26T07:48:35.734Z,1756
2019-05-26T07:49:20.955Z,856
2019-05-26T07:50:20.492Z,2000
2019-05-26T07:51:23.647Z,2120
2019-05-26T07:52:20.479Z,2096
2019-05-26T07:53:20.464Z,2064
2019-05-26T07:54:32.987Z,1944
2019-05-26T07:55:20.480Z,1992
2019-05-26T07:56:20.804Z,1972
2019-05-26T07:57:20.555Z,2156
2019-05-26T07:58:20.501Z,2208
2019-05-26T07:59:20.478Z,2176
2019-05-26T08:00:20.516Z,2152
2019-05-26T08:01:24.083Z,2280
2019-05-26T08:02:20.557Z,2284
2019-05-26T08:03:20.480Z,2368
2019-05-26T08:04:20.525Z,2276
2019-05-26T08:05:20.676Z,2220
2019-05-26T08:06:20.641Z,2300
2019-05-26T08:07:22.943Z,2440
2019-05-26T08:08:22.195Z,2444
2019-05-26T08:09:20.571Z,2260
2019-05-26T08:10:20.532Z,2268
2019-05-26T08:11:20.491Z,2328
2019-05-26T08:12:35.961Z,2520
2019-05-26T08:13:20.507Z,2468
2019-05-26T08:14:20.492Z,2392
2019-05-26T08:15:20.562Z,2328
2019-05-26T08:16:20.531Z,2340
2019-05-26T08:17:24.279Z,2352
2019-05-26T08:18:20.497Z,2340
2019-05-26T08:19:20.509Z,2252
2019-05-26T08:20:20.602Z,2232
2019-05-26T08:21:20.564Z,2196
2019-05-26T08:22:20.545Z,2148
2019-05-26T08:23:20.632Z,2140
2019-05-26T08:24:20.539Z,2052
2019-05-26T08:25:20.522Z,2020
2019-05-26T08:26:20.939Z,1976
2019-05-26T08:27:20.645Z,1940
2019-05-26T08:28:24.498Z,1856
2019-05-26T08:29:20.553Z,1900
2019-05-26T08:30:20.582Z,1784
2019-05-26T08:31:21.344Z,676
2019-05-26T08:32:23.240Z,2064
2019-05-26T08:33:20.565Z,2032
2019-05-26T08:34:20.564Z,1976
2019-05-26T08:35:20.654Z,1916
2019-05-26T08:36:20.507Z,1892
2019-05-26T08:37:20.586Z,1884
2019-05-26T08:38:20.961Z,1908
2019-05-26T08:39:20.577Z,1928
2019-05-26T08:40:20.738Z,1920
2019-05-26T08:41:20.857Z,1344
2019-05-26T08:42:52.166Z,1972
2019-05-26T08:43:21.956Z,1968
2019-05-26T08:44:21.187Z,1960
2019-05-26T08:45:24.203Z,1804
2019-05-26T08:46:20.565Z,1768
2019-05-26T08:47:20.663Z,1656
2019-05-26T08:48:20.580Z,1800
2019-05-26T08:49:20.583Z,1848
2019-05-26T08:50:20.597Z,1836
2019-05-26T08:51:20.580Z,1640
2019-05-26T08:52:20.652Z,1744
2019-05-26T08:53:20.700Z,1800
2019-05-26T08:54:20.621Z,1616
2019-05-26T08:55:20.625Z,1864
2019-05-26T08:56:20.914Z,1808
2019-05-26T08:57:21.128Z,1768
2019-05-26T08:58:20.859Z,1752
2019-05-26T08:59:20.604Z,1836
2019-05-26T09:00:20.594Z,1800
2019-05-26T09:01:20.634Z,1780
2019-05-26T09:02:20.625Z,1736
2019-05-26T09:06:49.412Z,1800
2019-05-26T09:07:49.396Z,1720
2019-05-26T09:08:49.407Z,1760
2019-05-26T09:09:49.491Z,1808
2019-05-26T09:10:49.431Z,792
2019-05-26T09:11:49.443Z,1848
2019-05-26T09:13:04.705Z,1584
2019-05-26T09:18:07.757Z,1780
2019-05-26T09:19:18.741Z,1928
2019-05-26T09:20:19.896Z,1844
2019-05-26T09:21:18.850Z,1892
2019-05-26T09:22:18.862Z,1968
2019-05-26T09:23:19.196Z,1920
2019-05-26T09:24:19.717Z,1728
2019-05-26T09:25:19.551Z,1912
2019-05-26T09:26:18.787Z,1880
2019-05-26T09:27:18.825Z,1888
2019-05-26T09:28:18.825Z,1924
2019-05-26T09:29:19.266Z,1884
2019-05-26T09:30:18.777Z,1948
2019-05-26T09:31:18.745Z,1856
2019-05-26T09:32:18.837Z,1872
2019-05-26T09:33:19.084Z,1876
2019-05-26T09:34:18.742Z,1900
2019-05-26T09:35:18.797Z,1408
2019-05-26T09:36:18.784Z,660
2019-05-26T09:37:18.796Z,672
2019-05-26T09:38:18.809Z,824
2019-05-26T09:39:18.815Z,1860
2019-05-26T09:40:18.741Z,2040
2019-05-26T09:41:19.040Z,908
2019-05-26T09:42:21.789Z,1772
2019-05-26T09:43:24.317Z,2024
2019-05-26T09:44:18.757Z,1920
2019-05-26T09:45:18.816Z,1800
2019-05-26T09:46:18.762Z,1904
2019-05-26T09:47:18.815Z,860
2019-05-26T09:48:18.847Z,888
2019-05-26T09:49:18.778Z,872
2019-05-26T09:50:18.775Z,816
2019-05-26T09:51:18.817Z,792
2019-05-26T09:52:18.762Z,780
2019-05-26T09:53:18.848Z,644
2019-05-26T09:54:20.646Z,1556
2019-05-26T09:55:18.745Z,632
2019-05-26T09:56:18.798Z,648
2019-05-26T09:57:18.806Z,732
2019-05-26T09:58:18.843Z,668
2019-05-26T09:59:18.897Z,824
2019-05-26T10:00:21.409Z,552
2019-05-26T10:01:18.813Z,552
2019-05-26T10:02:18.963Z,572
2019-05-26T10:03:18.800Z,616
2019-05-26T10:04:18.765Z,1940
2019-05-26T10:05:18.814Z,1968
2019-05-26T10:06:18.870Z,1956
2019-05-26T10:07:23.747Z,1908
2019-05-26T10:08:18.799Z,1836
2019-05-26T10:09:18.820Z,1808
2019-05-26T10:10:18.933Z,1744
2019-05-26T10:11:18.847Z,1816
2019-05-26T10:12:18.847Z,1844
2019-05-26T10:13:33.776Z,1824
2019-05-26T10:14:18.811Z,1776
2019-05-26T10:15:18.890Z,1816
2019-05-26T10:17:23.561Z,1884
2019-05-26T10:17:34.890Z,1828
2019-05-26T10:18:35.125Z,1820
2019-05-26T10:19:34.521Z,772
2019-05-26T10:20:34.562Z,1796
2019-05-26T10:21:34.779Z,1828
2019-05-26T10:22:34.541Z,1812
2019-05-26T10:23:34.525Z,1796
2019-05-26T10:24:34.527Z,1836
2019-05-26T10:25:35.004Z,1836
2019-05-26T10:26:34.539Z,1860
2019-05-26T10:27:34.588Z,1772
2019-05-26T10:28:34.541Z,1748
2019-05-26T10:29:34.509Z,1772
2019-05-26T10:30:34.613Z,1844
2019-05-26T10:31:34.829Z,1964
2019-05-26T10:32:34.545Z,2000
2019-05-26T10:33:34.600Z,2024
2019-05-26T10:34:34.544Z,1988
2019-05-26T10:35:34.564Z,1928
2019-05-26T10:36:34.912Z,1960
2019-05-26T10:37:34.559Z,1936
2019-05-26T10:38:34.589Z,1912
2019-05-26T10:39:34.696Z,1892
2019-05-26T10:40:34.616Z,1844
2019-05-26T10:41:34.645Z,1852
2019-05-26T10:42:34.606Z,1780
2019-05-26T10:43:49.441Z,1808
2019-05-26T10:44:34.599Z,1820
2019-05-26T10:45:36.994Z,1836
2019-05-26T10:46:34.540Z,1880
2019-05-26T10:47:34.626Z,1908
2019-05-26T10:48:35.138Z,1900
2019-05-26T10:49:34.599Z,1228
2019-05-26T10:50:34.563Z,1388
2019-05-26T10:51:34.651Z,820
2019-05-26T10:52:34.638Z,1844
2019-05-26T10:53:34.624Z,1876
2019-05-26T10:54:34.590Z,1872
2019-05-26T10:55:34.680Z,1772
2019-05-26T10:56:34.687Z,1800
2019-05-26T10:57:34.729Z,1856
2019-05-26T10:58:34.582Z,1836
2019-05-26T10:59:36.494Z,1788
2019-05-26T11:00:38.477Z,1784
2019-05-26T11:01:34.710Z,1828
2019-05-26T11:02:34.633Z,1856
2019-05-26T11:03:35.210Z,1864
2019-05-26T11:04:34.667Z,1900
2019-05-26T11:05:34.650Z,1904
2019-05-26T11:06:34.966Z,1888
2019-05-26T11:07:34.855Z,1800
2019-05-26T11:08:34.652Z,1796
2019-05-26T11:09:34.642Z,1788
2019-05-26T11:10:34.643Z,1816
2019-05-26T11:11:34.670Z,1704
2019-05-26T11:12:34.622Z,1616
2019-05-26T11:13:34.667Z,608
2019-05-26T11:14:34.667Z,1532
2019-05-26T11:15:34.741Z,1272
2019-05-26T11:16:34.783Z,648
2019-05-26T11:17:34.746Z,632
2019-05-26T11:18:35.025Z,636
2019-05-26T11:19:34.626Z,668
2019-05-26T11:20:34.692Z,1832
2019-05-26T11:21:34.839Z,1880
2019-05-26T11:22:34.625Z,1860
2019-05-26T11:23:34.792Z,624
2019-05-26T11:24:34.681Z,620
2019-05-26T11:25:34.665Z,644
2019-05-26T11:26:34.813Z,640
2019-05-26T11:31:51.597Z,1816
2019-05-26T11:32:02.706Z,1868
2019-05-26T11:33:04.877Z,1868
2019-05-26T11:34:02.607Z,1844
2019-05-26T11:35:09.578Z,1780
2019-05-26T11:36:02.600Z,1772
2019-05-26T11:37:02.689Z,1816
2019-05-26T11:38:02.587Z,1832
2019-05-26T11:39:02.661Z,1856
2019-05-26T11:40:02.546Z,1848
2019-05-26T11:42:18.330Z,1844
2019-05-26T11:42:29.387Z,1844
2019-05-26T11:43:29.291Z,1720
2019-05-26T11:44:29.297Z,1788
2019-05-26T11:45:29.287Z,1416
2019-05-26T11:46:29.367Z,968
2019-05-26T11:47:29.392Z,1804
2019-05-26T11:48:30.097Z,1772
2019-05-26T11:49:29.454Z,1648
2019-05-26T11:50:29.296Z,656
2019-05-26T11:51:29.318Z,652
2019-05-26T11:52:29.350Z,656
2019-05-26T11:53:29.797Z,852
2019-05-26T11:54:29.379Z,1724
2019-05-26T11:55:32.853Z,1760
2019-05-26T11:56:29.298Z,1784
2019-05-26T11:57:36.637Z,1760
2019-05-26T11:58:29.427Z,1728
2019-05-26T11:59:30.132Z,1716
2019-05-26T12:00:29.336Z,1712
2019-05-26T12:01:30.980Z,1720
2019-05-26T12:02:29.370Z,1752
2019-05-26T12:03:29.356Z,1760
2019-05-26T12:04:29.420Z,1732
2019-05-26T12:05:29.821Z,1708
2019-05-26T12:06:29.371Z,1748
2019-05-26T12:07:29.398Z,1680
2019-05-26T12:08:29.469Z,1764
2019-05-26T12:09:29.475Z,1760
2019-05-26T12:10:29.386Z,1788
2019-05-26T12:11:29.390Z,1780
2019-05-26T12:12:29.393Z,1788
2019-05-26T12:13:29.435Z,1740
2019-05-26T12:14:42.699Z,1712
2019-05-26T12:15:29.394Z,1712
2019-05-26T12:16:31.551Z,1680
2019-05-26T12:17:29.431Z,504
2019-05-26T12:18:29.440Z,524
2019-05-26T12:19:29.469Z,1104
2019-05-26T12:20:29.526Z,1652
2019-05-26T12:21:29.476Z,1728
2019-05-26T12:22:29.398Z,1764
2019-05-26T12:23:29.772Z,1784
2019-05-26T12:24:29.367Z,1784
2019-05-26T12:25:29.414Z,1804
2019-05-26T12:26:29.383Z,1180
2019-05-26T12:27:29.446Z,1752
2019-05-26T12:28:29.454Z,692
2019-05-26T12:29:29.441Z,628
2019-05-26T12:30:29.425Z,692
2019-05-26T12:31:29.389Z,896
2019-05-26T12:32:29.441Z,1636
2019-05-26T12:33:29.449Z,1516
2019-05-26T12:34:29.469Z,816
2019-05-26T12:35:29.444Z,1744
2019-05-26T12:36:29.487Z,784
2019-05-26T12:37:29.492Z,732
2019-05-26T12:38:29.478Z,864
2019-05-26T12:39:29.382Z,592
2019-05-26T12:40:29.475Z,568
2019-05-26T12:41:32.352Z,584
2019-05-26T12:42:29.465Z,608
2019-05-26T12:43:29.456Z,1308
2019-05-26T12:44:29.438Z,1508
2019-05-26T12:45:29.504Z,1740
2019-05-26T12:46:29.430Z,924
2019-05-26T12:47:29.864Z,668
2019-05-26T12:48:29.485Z,668
2019-05-26T12:49:32.911Z,684
2019-05-26T12:50:29.462Z,1416
2019-05-26T12:51:29.537Z,1676
2019-05-26T12:52:29.488Z,1688
2019-05-26T12:53:29.907Z,1652
2019-05-26T12:54:29.423Z,1608
2019-05-26T12:55:29.473Z,1608
2019-05-26T12:56:29.477Z,1556
2019-05-26T12:57:29.582Z,1584
2019-05-26T12:58:29.517Z,1592
2019-05-26T12:59:29.465Z,1556
2019-05-26T13:00:45.214Z,1580
2019-05-26T13:01:29.466Z,1624
2019-05-26T13:02:29.516Z,904
2019-05-26T13:03:29.773Z,884
2019-05-26T13:04:29.558Z,660
2019-05-26T13:05:29.485Z,592
2019-05-26T13:06:29.460Z,1672
2019-05-26T13:07:29.487Z,1700
2019-05-26T13:08:29.432Z,1720
2019-05-26T13:09:29.505Z,1704
2019-05-26T13:10:29.767Z,1664
2019-05-26T13:11:30.798Z,912
2019-05-26T13:12:29.524Z,1152
2019-05-26T13:13:29.471Z,764
2019-05-26T13:14:29.513Z,1600
2019-05-26T13:15:29.447Z,1548
2019-05-26T13:16:29.539Z,1592
2019-05-26T13:17:29.844Z,1560
2019-05-26T13:18:29.538Z,1616
2019-05-26T13:19:29.486Z,1588
2019-05-26T13:20:29.539Z,1608
2019-05-26T13:21:29.540Z,1572
2019-05-26T13:22:29.493Z,1572
2019-05-26T13:23:29.898Z,1568
2019-05-26T13:24:29.577Z,1568
2019-05-26T13:25:29.506Z,1532
2019-05-26T13:26:29.573Z,1524
2019-05-26T13:27:29.816Z,1540
2019-05-26T13:28:29.523Z,1512
2019-05-26T13:29:33.974Z,1496
2019-05-26T13:30:29.485Z,1460
2019-05-26T13:31:29.524Z,1456
2019-05-26T13:32:29.597Z,1472
2019-05-26T13:33:29.521Z,1468
2019-05-26T13:34:29.595Z,1476
2019-05-26T13:35:29.554Z,1476
2019-05-26T13:36:29.602Z,1524
2019-05-26T13:37:29.614Z,1496
2019-05-26T13:38:29.541Z,1480
2019-05-26T13:39:29.616Z,1452
2019-05-26T13:40:32.230Z,1476
2019-05-26T13:41:29.530Z,1488
2019-05-26T13:42:29.542Z,1000
2019-05-26T13:43:29.566Z,552
2019-05-26T13:44:29.629Z,1188
2019-05-26T13:45:33.819Z,1096
2019-05-26T13:46:29.607Z,1544
2019-05-26T13:47:34.652Z,1152
2019-05-26T13:48:29.577Z,1528
2019-05-26T13:49:29.560Z,1524
2019-05-26T13:50:29.622Z,1492
2019-05-26T13:51:29.593Z,1460
2019-05-26T13:52:29.549Z,1460
2019-05-26T13:53:29.613Z,1472
2019-05-26T13:54:29.565Z,1484
2019-05-26T13:55:29.601Z,1480
2019-05-26T13:56:29.671Z,1444
2019-05-26T13:57:29.691Z,1440
2019-05-26T14:02:46.982Z,1488
2019-05-26T14:03:57.951Z,1440
2019-05-26T14:04:58.059Z,1432
2019-05-26T14:05:57.988Z,1464
2019-05-26T14:06:58.010Z,1436
2019-05-26T14:07:58.484Z,1444
2019-05-26T14:08:58.024Z,1432
2019-05-26T14:09:58.063Z,1388
2019-05-26T14:10:58.103Z,1392
2019-05-26T14:11:58.045Z,1388
2019-05-26T14:12:58.197Z,1360
2019-05-26T14:13:58.527Z,1300
2019-05-26T14:14:58.067Z,1220